Time;durP1;ratioP1;P1;durP2;ratioP2;P2;SDS_P1;SDS_P2;PMS_P1;PMS_P2;Temp;Humidity;BMP_temperature;BMP_pressure;BME280_temperature;BME280_humidity;BME280_pressure;Samples;Min_cycle;Max_cycle;Signal;HPM_P1;HPM_P2
2022/10/12 00:01:04;;;;;;;7.55;2.40;;;;;;;24.14;29.76;101308.19;5051549;28;20044;-85
2022/10/12 00:03:33;;;;;;;6.43;2.85;;;;;;;24.11;30.68;101318.84;5049240;28;20048;-85
2022/10/12 00:06:03;;;;;;;8.32;2.50;;;;;;;24.03;29.10;101316.34;5043453;28;20048;-75
2022/10/12 00:08:32;;;;;;;7.15;2.35;;;;;;;23.96;29.39;101312.94;5050983;28;20044;-84
2022/10/12 00:11:03;;;;;;;6.97;2.50;;;;;;;23.89;29.89;101319.22;5050559;28;20048;-80
2022/10/12 00:13:31;;;;;;;8.07;1.90;;;;;;;23.79;29.92;101318.47;5050633;28;20041;-75
2022/10/12 00:16:04;;;;;;;6.10;2.00;;;;;;;23.66;29.70;101316.91;5046146;28;20052;-75
2022/10/12 00:18:33;;;;;;;10.45;2.72;;;;;;;23.56;29.98;101310.88;5042599;28;20831;-78
2022/10/12 00:21:03;;;;;;;8.13;1.95;;;;;;;23.47;30.59;101308.41;5045073;28;20056;-73
2022/10/12 00:23:33;;;;;;;7.45;2.28;;;;;;;23.41;30.58;101308.50;5043746;28;20049;-71
2022/10/12 00:26:06;;;;;;;10.13;2.40;;;;;;;23.33;30.57;101305.09;5050826;28;20041;-77
2022/10/12 00:28:36;;;;;;;9.63;2.25;;;;;;;23.26;30.58;101300.81;5043860;28;20514;-76
2022/10/12 00:31:09;;;;;;;7.05;2.75;;;;;;;23.17;31.04;101304.44;5045804;28;20067;-74
2022/10/12 00:33:38;;;;;;;9.38;2.45;;;;;;;23.10;31.42;101306.28;5045050;28;20099;-75
2022/10/12 00:36:17;;;;;;;6.10;2.10;;;;;;;23.02;31.85;101307.28;5045791;28;20090;-76
2022/10/12 00:38:47;;;;;;;12.45;2.13;;;;;;;22.99;32.00;101308.19;5038784;28;20049;-71
2022/10/12 00:41:19;;;;;;;7.40;2.58;;;;;;;22.92;32.16;101306.50;5050194;28;20048;-71
2022/10/12 00:43:55;;;;;;;6.45;2.10;;;;;;;22.84;32.90;101297.78;5044861;28;20503;-72
2022/10/12 00:46:30;;;;;;;6.15;2.10;;;;;;;22.74;32.82;101295.28;5041672;28;20060;-72
2022/10/12 00:49:05;;;;;;;8.00;2.25;;;;;;;22.70;33.41;101304.13;5042026;28;20052;-71
2022/10/12 00:51:34;;;;;;;10.93;2.72;;;;;;;22.64;33.60;101298.94;5047702;28;20075;-71
2022/10/12 00:54:06;;;;;;;7.97;2.30;;;;;;;22.56;33.96;101292.84;5044472;28;20057;-73
2022/10/12 00:56:40;;;;;;;7.25;2.22;;;;;;;22.49;34.55;101294.69;5043234;28;20053;-71
2022/10/12 00:59:18;;;;;;;9.05;2.33;;;;;;;22.41;34.91;101298.31;5044891;28;20046;-71
2022/10/12 01:01:47;;;;;;;5.78;2.45;;;;;;;22.32;35.28;101297.53;5047758;28;20041;-71
2022/10/12 01:04:15;;;;;;;6.22;2.33;;;;;;;22.23;35.96;101300.25;5051913;28;20486;-71
2022/10/12 01:06:44;;;;;;;9.52;3.03;;;;;;;22.14;35.92;101290.63;5033481;28;20068;-71
2022/10/12 01:09:13;;;;;;;10.05;2.42;;;;;;;22.05;36.01;101297.75;5040235;28;20724;-71
2022/10/12 01:11:43;;;;;;;9.77;2.72;;;;;;;21.95;36.48;101300.47;5039861;28;20048;-70
2022/10/12 01:14:12;;;;;;;10.02;3.03;;;;;;;21.87;36.48;101291.75;5044227;28;20052;-72
2022/10/12 01:16:50;;;;;;;13.63;2.95;;;;;;;21.78;36.50;101299.75;5041462;28;20049;-71
2022/10/12 01:19:40;;;;;;;10.65;2.83;;;;;;;21.70;36.68;101299.81;5045054;28;20052;-72
2022/10/12 01:22:12;;;;;;;7.68;2.88;;;;;;;21.59;36.02;101303.41;5040424;28;20049;-70
2022/10/12 01:24:52;;;;;;;9.30;2.70;;;;;;;21.45;36.85;101303.50;5047617;28;20045;-75
2022/10/12 01:27:36;;;;;;;8.82;2.58;;;;;;;21.32;36.75;101306.16;5044816;28;20080;-76
2022/10/12 01:30:22;;;;;;;11.85;2.65;;;;;;;21.23;36.40;101308.00;5050554;28;20045;-75
2022/10/12 01:33:15;;;;;;;9.43;2.25;;;;;;;21.12;37.07;101306.31;5046207;28;20049;-77
2022/10/12 01:35:52;;;;;;;7.28;2.33;;;;;;;21.04;36.31;101302.81;5036003;28;20045;-71
2022/10/12 01:38:33;;;;;;;7.95;2.40;;;;;;;20.93;36.10;101307.25;5046989;28;20398;-71
2022/10/12 01:41:08;;;;;;;7.50;2.80;;;;;;;20.83;35.77;101302.94;5043110;28;20049;-70
2022/10/12 01:43:45;;;;;;;6.45;2.60;;;;;;;20.74;36.42;101311.72;5045467;28;20290;-69
2022/10/12 01:46:52;;;;;;;7.95;2.78;;;;;;;20.65;36.37;101315.25;5045826;28;20052;-71
2022/10/12 01:49:26;;;;;;;5.68;2.20;;;;;;;20.55;36.75;101313.53;5037139;28;20045;-70
2022/10/12 01:52:09;;;;;;;4.88;2.40;;;;;;;20.42;36.76;101312.66;5053340;28;20053;-69
2022/10/12 01:54:53;;;;;;;7.75;2.20;;;;;;;20.37;37.01;101318.81;5044303;28;20053;-70
2022/10/12 01:57:30;;;;;;;5.32;2.28;;;;;;;20.27;37.03;101329.34;5036906;28;20562;-69
2022/10/12 02:00:06;;;;;;;7.45;2.42;;;;;;;20.17;37.61;101322.34;5048262;28;20085;-69
2022/10/12 02:02:46;;;;;;;6.28;2.72;;;;;;;20.09;38.08;101324.13;5041937;28;20061;-69
2022/10/12 02:05:23;;;;;;;7.72;2.90;;;;;;;20.01;38.81;101328.50;5047350;28;20037;-69
2022/10/12 02:07:58;;;;;;;6.05;2.63;;;;;;;19.91;39.12;101329.38;5038524;28;20048;-69
2022/10/12 02:10:31;;;;;;;5.40;2.28;;;;;;;19.82;38.45;101336.38;5044661;28;20037;-70
2022/10/12 02:13:05;;;;;;;5.55;2.55;;;;;;;19.75;37.84;101345.13;5054809;28;20045;-70
2022/10/12 02:15:35;;;;;;;9.25;2.63;;;;;;;19.66;38.03;101332.81;5050863;28;20048;-72
2022/10/12 02:18:06;;;;;;;6.55;2.53;;;;;;;19.59;39.00;101338.06;5043349;28;20053;-81
2022/10/12 02:20:39;;;;;;;4.95;2.30;;;;;;;19.52;39.22;101344.19;5047945;28;20051;-79
2022/10/12 02:23:09;;;;;;;6.38;2.90;;;;;;;19.43;39.20;101343.28;5052272;28;20037;-77
2022/10/12 02:25:37;;;;;;;5.32;2.38;;;;;;;19.36;39.97;101343.28;5042237;28;20064;-76
2022/10/12 02:28:10;;;;;;;4.32;2.55;;;;;;;19.26;40.28;101334.47;5042165;28;20096;-78
2022/10/12 02:30:42;;;;;;;;;;;;;;;19.16;39.87;101332.72;5039309;28;20073;-83
2022/10/12 02:33:16;;;;;;;8.52;2.60;;;;;;;19.05;40.32;101341.41;5046996;28;21300;-77
2022/10/12 02:35:51;;;;;;;8.85;2.55;;;;;;;18.94;40.65;101345.72;5037364;28;20041;-76
2022/10/12 02:38:25;;;;;;;6.18;2.10;;;;;;;18.81;42.00;101351.81;5040113;28;20530;-76
2022/10/12 02:40:59;;;;;;;8.10;2.55;;;;;;;18.64;44.00;101346.41;5047490;28;20278;-75
2022/10/12 02:43:33;;;;;;;7.75;2.47;;;;;;;18.51;43.55;101352.44;5043448;28;20101;-76
2022/10/12 02:46:05;;;;;;;7.53;2.70;;;;;;;18.43;43.33;101349.78;5042239;28;20534;-76
2022/10/12 02:48:34;;;;;;;8.38;2.05;;;;;;;18.38;43.21;101352.38;5053341;28;20495;-78
2022/10/12 02:51:06;;;;;;;6.05;2.25;;;;;;;18.36;43.23;101348.84;5050924;28;20049;-79
2022/10/12 02:53:35;;;;;;;3.47;1.95;;;;;;;18.33;43.75;101355.84;5048656;28;20049;-75
2022/10/12 02:56:07;;;;;;;6.03;2.15;;;;;;;18.26;43.63;101352.28;5045213;28;20053;-76
2022/10/12 02:58:35;;;;;;;2.60;1.55;;;;;;;18.23;44.52;101351.38;5041538;28;20114;-75
2022/10/12 03:01:04;;;;;;;8.68;2.50;;;;;;;18.19;44.30;101346.13;5049352;28;20458;-75
2022/10/12 03:03:33;;;;;;;6.05;2.00;;;;;;;18.10;44.82;101353.91;5044154;28;20387;-75
2022/10/12 03:06:01;;;;;;;9.27;2.78;;;;;;;18.03;46.09;101354.75;5052959;28;20040;-77
2022/10/12 03:08:32;;;;;;;6.95;1.77;;;;;;;17.97;45.65;101355.53;5043988;28;20495;-75
2022/10/12 03:11:03;;;;;;;5.93;1.85;;;;;;;17.92;46.73;101353.75;5043104;28;20060;-75
2022/10/12 03:13:31;;;;;;;3.55;1.63;;;;;;;17.90;48.29;101352.88;5040474;28;20131;-76
2022/10/12 03:16:04;;;;;;;3.88;1.42;;;;;;;17.85;47.32;101359.81;5045989;28;20053;-75
2022/10/12 03:18:33;;;;;;;7.82;2.03;;;;;;;17.81;47.87;101358.91;5043090;28;20052;-77
2022/10/12 03:21:02;;;;;;;12.00;2.17;;;;;;;17.76;48.26;101356.19;5046542;28;20755;-76
2022/10/12 03:23:32;;;;;;;6.03;2.17;;;;;;;17.73;48.69;101366.66;5044037;28;20049;-76
2022/10/12 03:26:01;;;;;;;4.18;1.65;;;;;;;17.68;48.94;101352.63;5040989;28;20738;-76
2022/10/12 03:28:29;;;;;;;4.95;1.98;;;;;;;17.64;49.46;101356.09;5047671;28;20057;-76
2022/10/12 03:30:58;;;;;;;6.90;1.45;;;;;;;17.59;49.87;101357.75;5039838;28;20086;-77
2022/10/12 03:33:33;;;;;;;5.93;1.70;;;;;;;17.56;50.31;101363.84;5041945;28;20053;-76
2022/10/12 03:36:02;;;;;;;7.63;1.98;;;;;;;17.52;50.51;101361.19;5033381;28;20053;-77
2022/10/12 03:38:32;;;;;;;7.68;1.67;;;;;;;17.47;51.18;101355.03;5045129;28;20049;-75
2022/10/12 03:41:00;;;;;;;6.88;2.08;;;;;;;17.42;50.77;101357.59;5049453;28;20250;-76
2022/10/12 03:43:29;;;;;;;8.32;1.98;;;;;;;17.38;51.62;101358.41;5046332;28;20057;-75
2022/10/12 03:45:58;;;;;;;6.60;1.30;;;;;;;17.36;52.44;101366.25;5052085;28;20057;-77
2022/10/12 03:48:26;;;;;;;9.25;1.80;;;;;;;17.34;52.29;101365.38;5036901;28;20056;-77
2022/10/12 03:50:55;;;;;;;6.13;1.77;;;;;;;17.32;51.85;101369.69;5048645;28;20410;-76
2022/10/12 03:53:23;;;;;;;4.47;1.85;;;;;;;17.29;52.60;101363.53;5049315;28;20041;-78
2022/10/12 03:55:53;;;;;;;4.88;1.83;;;;;;;17.26;53.00;101364.38;5040182;28;20490;-77
2022/10/12 03:58:22;;;;;;;3.72;1.25;;;;;;;17.23;53.25;101359.13;5037315;28;20038;-78
2022/10/12 04:00:54;;;;;;;6.60;1.70;;;;;;;17.23;53.13;101363.50;5054765;28;20522;-78
2022/10/12 04:03:22;;;;;;;5.45;1.55;;;;;;;17.22;52.75;101367.81;5051846;28;20044;-78
2022/10/12 04:05:55;;;;;;;10.55;1.55;;;;;;;17.17;53.25;101359.06;5046097;28;20060;-76
2022/10/12 04:08:23;;;;;;;5.57;1.40;;;;;;;17.12;53.82;101355.50;5036133;28;20125;-77
2022/10/12 04:10:54;;;;;;;8.38;1.23;;;;;;;17.09;53.59;101360.72;5043130;28;20107;-77
2022/10/12 04:13:22;;;;;;;8.13;1.52;;;;;;;17.03;54.21;101371.09;5049538;28;20041;-83
2022/10/12 04:15:51;;;;;;;4.28;1.17;;;;;;;17.01;54.30;101372.78;5051215;28;20052;-81
2022/10/12 04:18:20;;;;;;;9.88;2.10;;;;;;;16.98;54.73;101384.09;5048226;28;20494;-78
2022/10/12 04:20:50;;;;;;;4.32;1.10;;;;;;;16.95;55.51;101379.72;5051524;28;20045;-75
2022/10/12 04:23:25;;;;;;;2.75;1.45;;;;;;;16.92;55.78;101381.38;5048285;28;20048;-76
2022/10/12 04:25:55;;;;;;;3.17;1.15;;;;;;;16.87;55.64;101381.31;5045377;28;20049;-82
2022/10/12 04:28:23;;;;;;;2.85;1.05;;;;;;;16.86;55.97;101384.81;5034879;28;20053;-78
2022/10/12 04:30:52;;;;;;;4.35;1.55;;;;;;;16.84;56.60;101386.53;5049075;28;20045;-76
2022/10/12 04:33:21;;;;;;;4.50;1.20;;;;;;;16.83;56.57;101387.38;5051263;28;20041;-77
2022/10/12 04:35:49;;;;;;;5.35;1.10;;;;;;;16.82;56.71;101397.81;5043954;28;20052;-77
2022/10/12 04:38:18;;;;;;;3.70;1.15;;;;;;;16.79;56.62;101397.72;5043767;28;20505;-76
2022/10/12 04:40:48;;;;;;;5.55;1.55;;;;;;;16.77;56.58;101405.56;5035577;28;20057;-76
2022/10/12 04:43:18;;;;;;;5.90;1.40;;;;;;;16.75;56.88;101402.03;5038002;27;20115;-76
2022/10/12 04:45:54;;;;;;;5.95;1.20;;;;;;;16.74;57.23;101400.25;5044764;28;20045;-77
2022/10/12 04:48:23;;;;;;;5.18;1.15;;;;;;;16.74;57.01;101406.41;5045316;28;20057;-76
2022/10/12 04:50:52;;;;;;;2.80;1.25;;;;;;;16.69;57.70;101401.94;5050493;28;20048;-77
2022/10/12 04:53:21;;;;;;;3.00;1.42;;;;;;;16.64;57.86;101403.63;5043417;28;20190;-76
2022/10/12 04:55:50;;;;;;;9.77;1.63;;;;;;;16.61;57.77;101395.75;5046137;28;20046;-76
2022/10/12 04:58:20;;;;;;;6.93;1.23;;;;;;;16.60;57.75;101401.81;5048578;28;20524;-77
2022/10/12 05:00:49;;;;;;;6.95;1.70;;;;;;;16.58;57.57;101404.38;5043395;28;20104;-77
2022/10/12 05:03:18;;;;;;;2.75;0.98;;;;;;;16.55;57.82;101410.44;5048123;28;20077;-79
2022/10/12 05:05:46;;;;;;;3.45;1.23;;;;;;;16.50;57.91;101414.72;5051598;28;20044;-76
2022/10/12 05:08:15;;;;;;;4.97;1.15;;;;;;;16.47;58.42;101417.31;5046892;28;20045;-76
2022/10/12 05:10:45;;;;;;;4.57;1.27;;;;;;;16.43;58.50;101417.22;5044262;28;20040;-75
2022/10/12 05:13:13;;;;;;;8.55;1.42;;;;;;;16.39;58.47;101412.81;5039458;28;20060;-75
2022/10/12 05:15:44;;;;;;;3.90;1.33;;;;;;;16.33;59.55;101424.91;5045680;28;20483;-77
2022/10/12 05:18:13;;;;;;;3.53;1.50;;;;;;;16.32;60.11;101419.66;5045751;28;20518;-77
2022/10/12 05:20:41;;;;;;;3.65;1.30;;;;;;;16.26;59.84;101422.16;5046453;28;20428;-72
2022/10/12 05:23:11;;;;;;;4.25;1.13;;;;;;;16.22;60.42;101420.38;5044313;28;20049;-72
2022/10/12 05:25:40;;;;;;;2.95;1.23;;;;;;;16.18;59.77;101424.66;5044078;28;20411;-72
2022/10/12 05:28:08;;;;;;;10.02;1.60;;;;;;;16.15;59.77;101423.69;5043807;28;20103;-72
2022/10/12 05:30:37;;;;;;;5.50;1.40;;;;;;;16.04;59.64;101415.72;5048325;28;20052;-72
2022/10/12 05:33:07;;;;;;;5.10;1.95;;;;;;;16.03;60.64;101430.47;5034249;28;20044;-72
2022/10/12 05:35:35;;;;;;;3.35;1.65;;;;;;;16.00;60.41;101430.41;5045810;28;20044;-72
2022/10/12 05:38:04;;;;;;;4.65;1.25;;;;;;;15.97;60.41;101432.13;5043031;28;20129;-72
2022/10/12 05:40:33;;;;;;;10.80;2.58;;;;;;;15.92;61.18;101437.25;5041054;28;20041;-75
2022/10/12 05:43:01;;;;;;;8.30;1.70;;;;;;;15.88;61.32;101438.91;5045365;28;20179;-73
2022/10/12 05:45:30;;;;;;;15.63;3.55;;;;;;;15.85;62.06;101438.88;5049775;28;20048;-72
2022/10/12 05:47:58;;;;;;;5.00;2.35;;;;;;;15.81;61.58;101434.44;5051109;28;20095;-72
2022/10/12 05:50:29;;;;;;;6.97;2.22;;;;;;;15.74;63.38;101439.50;5044852;28;20048;-72
2022/10/12 05:52:57;;;;;;;15.10;2.55;;;;;;;15.68;63.63;101430.66;5053109;28;20049;-72
2022/10/12 05:55:26;;;;;;;12.50;3.00;;;;;;;15.64;63.30;101422.75;5040522;28;20091;-74
2022/10/12 05:57:54;;;;;;;12.30;2.65;;;;;;;15.60;64.65;101434.88;5051939;28;20056;-73
2022/10/12 06:00:23;;;;;;;13.82;2.15;;;;;;;15.59;63.98;101427.88;5042668;28;20037;-73
2022/10/12 06:02:52;;;;;;;2.85;1.73;;;;;;;15.56;63.40;101434.78;5052812;28;20513;-74
2022/10/12 06:05:20;;;;;;;7.57;2.38;;;;;;;15.47;64.03;101435.47;5049155;28;20505;-73
2022/10/12 06:07:50;;;;;;;5.18;2.00;;;;;;;15.46;64.06;101441.50;5049346;28;20056;-73
2022/10/12 06:10:19;;;;;;;5.18;1.60;;;;;;;15.42;64.23;101442.31;5050366;28;20053;-73
2022/10/12 06:12:48;;;;;;;10.82;2.35;;;;;;;15.33;64.10;101432.56;5046996;28;20487;-72
2022/10/12 06:15:17;;;;;;;4.60;1.55;;;;;;;15.34;65.04;101443.88;5045896;28;20080;-73
2022/10/12 06:17:45;;;;;;;6.82;2.03;;;;;;;15.27;65.15;101441.13;5047075;28;20045;-72
2022/10/12 06:20:14;;;;;;;7.20;2.13;;;;;;;15.19;65.59;101445.31;5048171;28;20061;-73
2022/10/12 06:22:42;;;;;;;6.68;2.28;;;;;;;15.14;66.32;101452.16;5048954;28;20044;-73
2022/10/12 06:25:13;;;;;;;6.55;1.95;;;;;;;15.12;66.08;101456.47;5039385;28;20037;-74
2022/10/12 06:27:41;;;;;;;5.82;1.73;;;;;;;15.10;65.52;101447.72;5041921;28;20048;-74
2022/10/12 06:30:11;;;;;;;15.60;3.92;;;;;;;15.05;65.72;101450.22;5049791;28;20048;-73
2022/10/12 06:32:39;;;;;;;5.95;1.70;;;;;;;15.00;66.19;101454.47;5049242;28;20059;-74
2022/10/12 06:35:09;;;;;;;12.07;3.20;;;;;;;14.94;66.32;101456.06;5052938;28;20049;-74
2022/10/12 06:37:38;;;;;;;9.68;1.98;;;;;;;14.91;66.70;101456.84;5050169;28;20041;-74
2022/10/12 06:40:07;;;;;;;7.03;2.80;;;;;;;14.88;66.81;101454.16;5051604;28;20049;-74
2022/10/12 06:42:37;;;;;;;14.05;3.40;;;;;;;14.85;66.13;101447.16;5055449;28;20045;-74
2022/10/12 06:45:07;;;;;;;10.52;2.38;;;;;;;14.83;66.89;101448.84;5045323;28;20342;-74
2022/10/12 06:47:35;;;;;;;12.80;2.60;;;;;;;14.82;67.19;101452.31;5042126;28;20316;-73
2022/10/12 06:50:04;;;;;;;13.05;2.40;;;;;;;14.80;67.54;101454.00;5044680;28;20071;-73
2022/10/12 06:52:32;;;;;;;2.50;1.52;;;;;;;14.78;66.69;101450.47;5038029;28;20042;-73
2022/10/12 06:55:01;;;;;;;6.50;2.17;;;;;;;14.74;66.97;101453.84;5043523;28;20048;-73
2022/10/12 06:57:30;;;;;;;7.90;1.77;;;;;;;14.71;67.33;101448.59;5039534;28;20033;-73
2022/10/12 07:00:00;;;;;;;3.58;1.92;;;;;;;14.69;67.49;101450.25;5037777;28;20050;-73
2022/10/12 07:02:28;;;;;;;5.57;2.05;;;;;;;14.66;68.00;101456.28;5040031;28;20037;-73
2022/10/12 07:04:57;;;;;;;10.32;2.63;;;;;;;14.65;68.49;101458.84;5046033;28;20661;-74
2022/10/12 07:07:26;;;;;;;7.13;2.45;;;;;;;14.63;68.61;101461.41;5054931;28;20053;-73
2022/10/12 07:09:54;;;;;;;4.35;2.30;;;;;;;14.61;68.19;101455.31;5044859;28;20517;-73
2022/10/12 07:12:23;;;;;;;3.92;1.95;;;;;;;14.52;69.06;101462.81;5039332;28;20099;-72
2022/10/12 07:14:53;;;;;;;4.38;1.95;;;;;;;14.48;68.81;101468.81;5039229;28;20049;-72
2022/10/12 07:17:23;;;;;;;8.38;2.03;;;;;;;14.46;69.43;101463.56;5049233;28;20048;-73
2022/10/12 07:19:52;;;;;;;5.88;2.00;;;;;;;14.46;69.30;101466.19;5045223;28;20139;-73
2022/10/12 07:22:21;;;;;;;8.25;2.25;;;;;;;14.46;68.75;101467.91;5048344;28;20057;-73
2022/10/12 07:24:49;;;;;;;4.28;1.88;;;;;;;14.41;68.60;101464.31;5044380;28;20049;-72
2022/10/12 07:27:18;;;;;;;5.50;1.77;;;;;;;14.37;69.23;101468.53;5050606;28;20049;-72
2022/10/12 07:29:46;;;;;;;4.15;1.50;;;;;;;14.36;68.83;101468.50;5046762;28;20045;-73
2022/10/12 07:32:15;;;;;;;7.03;1.88;;;;;;;14.35;69.45;101470.22;5048292;28;20674;-73
2022/10/12 07:34:45;;;;;;;5.32;2.08;;;;;;;14.34;68.34;101473.69;5047529;28;20051;-73
2022/10/12 07:37:14;;;;;;;6.32;1.90;;;;;;;14.27;67.59;101471.78;5047096;28;20060;-73
2022/10/12 07:39:43;;;;;;;10.48;2.50;;;;;;;14.22;68.86;101481.16;5049338;28;20419;-73
2022/10/12 07:42:12;;;;;;;4.78;1.73;;;;;;;14.18;68.75;101475.00;5037794;28;20056;-72
2022/10/12 07:44:40;;;;;;;4.88;1.85;;;;;;;14.17;69.21;101474.97;5041947;27;20058;-74
2022/10/12 07:47:09;;;;;;;4.78;1.77;;;;;;;14.13;69.44;101471.41;5048111;28;20049;-73
2022/10/12 07:49:38;;;;;;;4.07;1.48;;;;;;;14.11;69.66;101459.19;5047721;28;20513;-74
2022/10/12 07:52:08;;;;;;;2.67;1.42;;;;;;;14.08;70.32;101459.97;5050168;28;20453;-73
2022/10/12 07:54:37;;;;;;;3.00;1.70;;;;;;;14.06;70.01;101466.84;5050595;28;20413;-73
2022/10/12 07:57:06;;;;;;;4.63;1.63;;;;;;;14.01;70.07;101464.13;5043713;28;20413;-73
2022/10/12 07:59:34;;;;;;;3.17;1.35;;;;;;;13.97;70.38;101457.13;5043960;28;20037;-74
2022/10/12 08:02:03;;;;;;;6.50;2.03;;;;;;;13.95;70.95;101461.41;5045751;28;20620;-73
2022/10/12 08:04:31;;;;;;;2.47;1.27;;;;;;;13.93;71.19;101462.19;5046158;28;20041;-73
2022/10/12 08:07:00;;;;;;;14.60;1.55;;;;;;;13.90;71.65;101457.75;5050020;28;20052;-73
2022/10/12 08:09:30;;;;;;;3.30;1.10;;;;;;;13.88;72.12;101462.06;5046746;28;20049;-73
2022/10/12 08:11:59;;;;;;;2.00;1.17;;;;;;;13.86;71.72;101458.53;5044622;28;20052;-72
2022/10/12 08:14:27;;;;;;;3.03;1.10;;;;;;;13.86;72.46;101463.75;5038300;28;20049;-73
2022/10/12 08:16:56;;;;;;;2.75;1.13;;;;;;;13.83;73.05;101456.75;5037745;28;20041;-73
2022/10/12 08:19:24;;;;;;;3.20;1.58;;;;;;;13.83;72.91;101455.84;5044642;28;20053;-73
2022/10/12 08:21:53;;;;;;;6.13;1.55;;;;;;;13.82;73.70;101447.16;5036164;28;20057;-72
2022/10/12 08:24:22;;;;;;;1.85;1.10;;;;;;;13.84;73.99;101444.63;5042831;28;20045;-73
2022/10/12 08:26:52;;;;;;;5.43;1.20;;;;;;;13.86;73.75;101448.13;5043611;28;20051;-72
2022/10/12 08:29:20;;;;;;;1.85;1.20;;;;;;;13.88;74.02;101448.16;5045138;28;20422;-72
2022/10/12 08:31:50;;;;;;;1.90;1.05;;;;;;;13.88;73.56;101451.66;5046900;28;20045;-72
2022/10/12 08:34:18;;;;;;;3.78;1.50;;;;;;;13.90;73.51;101449.97;5046742;28;20556;-72
2022/10/12 08:36:47;;;;;;;2.90;1.27;;;;;;;13.90;71.87;101449.97;5042866;28;20053;-73
2022/10/12 08:39:17;;;;;;;4.72;1.60;;;;;;;13.88;70.85;101448.16;5036415;28;20132;-73
2022/10/12 08:41:55;;;;;;;7.15;1.52;;;;;;;13.86;70.80;101444.63;5049478;28;20060;-72
2022/10/12 08:44:53;;;;;;;6.97;1.88;;;;;;;13.84;70.95;101444.63;5036530;28;20045;-72
2022/10/12 08:47:27;;;;;;;4.72;1.67;;;;;;;13.79;70.55;101451.41;5041971;28;20042;-73
2022/10/12 08:49:56;;;;;;;2.92;1.33;;;;;;;13.74;71.12;101443.50;5045847;28;20059;-73
2022/10/12 08:52:29;;;;;;;5.47;1.85;;;;;;;13.74;70.68;101447.78;5042135;28;20069;-73
2022/10/12 08:55:04;;;;;;;2.90;0.98;;;;;;;13.73;71.35;101440.84;5042754;28;20503;-73
2022/10/12 08:57:35;;;;;;;13.63;1.63;;;;;;;13.69;71.14;101442.44;5039215;28;20510;-73
2022/10/12 09:00:04;;;;;;;6.93;1.40;;;;;;;13.68;71.14;101447.63;5043358;28;20703;-73
2022/10/12 09:02:50;;;;;;;3.33;1.63;;;;;;;13.67;71.37;101448.47;5043852;28;21159;-73
2022/10/12 09:05:24;;;;;;;4.75;1.67;;;;;;;13.66;71.04;101451.91;5046078;28;20045;-73
2022/10/12 09:08:00;;;;;;;1.95;1.30;;;;;;;13.62;71.31;101453.53;5046956;28;20419;-73
2022/10/12 09:10:44;;;;;;;3.17;1.17;;;;;;;13.56;71.17;101450.75;5038059;28;20517;-73
2022/10/12 09:13:27;;;;;;;4.43;1.52;;;;;;;13.52;71.13;101459.31;5034446;28;20072;-72
2022/10/12 09:16:02;;;;;;;6.30;1.73;;;;;;;13.49;71.24;101461.81;5043737;28;20438;-72
2022/10/12 09:18:38;;;;;;;4.25;1.55;;;;;;;13.45;70.81;101458.25;5050125;28;20494;-72
2022/10/12 09:21:10;;;;;;;4.05;1.45;;;;;;;13.41;71.44;101464.19;5045410;28;20053;-73
2022/10/12 09:23:41;;;;;;;6.82;1.42;;;;;;;13.34;71.36;101462.25;5048919;28;20037;-73
2022/10/12 09:26:16;;;;;;;5.43;1.77;;;;;;;13.29;71.79;101471.66;5035686;28;20471;-73
2022/10/12 09:28:49;;;;;;;2.70;1.60;;;;;;;13.25;72.29;101472.34;5042682;28;20476;-74
2022/10/12 09:31:34;;;;;;;4.00;1.65;;;;;;;13.18;72.60;101466.97;5045097;28;20095;-73
2022/10/12 09:34:06;;;;;;;4.65;1.48;;;;;;;13.12;72.45;101461.56;5050401;28;20502;-72
2022/10/12 09:36:37;;;;;;;6.33;1.53;;;;;;;13.08;73.46;101467.53;5037272;28;20037;-72
2022/10/12 09:39:08;;;;;;;5.50;1.63;;;;;;;13.02;73.01;101476.84;5048889;28;20494;-73
2022/10/12 09:41:40;;;;;;;5.72;1.88;;;;;;;12.95;73.57;101484.44;5046441;28;20418;-73
2022/10/12 09:44:16;;;;;;;3.83;1.20;;;;;;;12.91;73.57;101484.28;5050729;28;20533;-73
2022/10/12 09:46:50;;;;;;;5.95;1.30;;;;;;;12.86;73.78;101473.75;5045618;28;20825;-72
2022/10/12 09:49:19;;;;;;;9.63;1.55;;;;;;;12.80;74.44;101470.97;5046660;28;20057;-73
2022/10/12 09:51:48;;;;;;;3.42;1.42;;;;;;;12.80;75.05;101473.56;5046803;28;20091;-73
2022/10/12 09:54:20;;;;;;;2.70;1.20;;;;;;;12.77;75.61;101465.69;5048698;28;20048;-73
2022/10/12 09:56:51;;;;;;;3.63;1.15;;;;;;;12.75;75.73;101465.63;5048967;28;20049;-73
2022/10/12 09:59:28;;;;;;;4.82;1.30;;;;;;;12.75;76.13;101460.44;5046494;28;20053;-73
2022/10/12 10:02:05;;;;;;;1.92;1.20;;;;;;;12.68;76.41;101450.69;5046136;28;20132;-73
2022/10/12 10:04:34;;;;;;;4.07;1.77;;;;;;;12.69;76.24;101460.25;5046133;28;20076;-73
2022/10/12 10:07:22;;;;;;;3.70;1.83;;;;;;;12.70;76.21;101462.00;5032066;28;20631;-73
2022/10/12 10:10:07;;;;;;;4.35;1.30;;;;;;;12.67;76.24;101456.72;5043738;28;20060;-73
2022/10/12 10:12:42;;;;;;;5.78;1.60;;;;;;;12.63;76.01;101449.66;5048312;28;20257;-73
2022/10/12 10:15:24;;;;;;;5.68;1.58;;;;;;;12.61;76.09;101442.66;5044952;28;20045;-73
2022/10/12 10:17:55;;;;;;;3.70;1.45;;;;;;;12.57;75.91;101444.25;5033794;28;20053;-72
2022/10/12 10:20:31;;;;;;;6.85;1.90;;;;;;;12.54;75.48;101446.75;5039959;28;20104;-73
2022/10/12 10:23:00;;;;;;;10.52;1.85;;;;;;;12.50;75.39;101452.69;5038301;28;20053;-73
2022/10/12 10:25:30;;;;;;;2.80;1.35;;;;;;;12.46;75.79;101451.72;5043485;28;20053;-73
2022/10/12 10:28:22;;;;;;;1.92;1.35;;;;;;;12.38;75.95;101453.16;5042182;28;20380;-73
2022/10/12 10:31:01;;;;;;;2.00;1.10;;;;;;;12.33;76.09;101455.59;5047632;28;20056;-73
2022/10/12 10:33:31;;;;;;;5.07;1.88;;;;;;;12.31;76.21;101457.28;5052063;28;20045;-73
2022/10/12 10:36:03;;;;;;;3.35;1.40;;;;;;;12.29;77.21;101455.44;5046922;28;20044;-73
2022/10/12 10:38:34;;;;;;;5.10;1.83;;;;;;;12.25;77.27;101456.19;5041819;28;20052;-74
2022/10/12 10:41:07;;;;;;;8.57;2.00;;;;;;;12.24;77.66;101454.44;5047680;28;20494;-74
2022/10/12 10:43:37;;;;;;;6.68;1.55;;;;;;;12.15;77.33;101442.88;5052127;28;20048;-73
2022/10/12 10:46:07;;;;;;;5.70;1.15;;;;;;;12.22;77.68;101461.28;5044972;28;20057;-73
2022/10/12 10:48:52;;;;;;;3.97;1.38;;;;;;;12.18;77.79;101449.91;5050176;28;20103;-73
2022/10/12 10:51:20;;;;;;;3.55;1.33;;;;;;;12.18;77.85;101449.03;5041859;28;20038;-73
2022/10/12 10:53:50;;;;;;;4.80;1.33;;;;;;;12.15;77.90;101445.47;5052070;28;20049;-73
2022/10/12 10:56:24;;;;;;;5.22;1.70;;;;;;;12.15;77.84;101449.81;5042160;28;20053;-73
2022/10/12 10:58:55;;;;;;;6.03;1.73;;;;;;;12.13;77.41;101451.47;5050489;28;20044;-73
2022/10/12 11:01:33;;;;;;;3.58;1.42;;;;;;;12.13;77.36;101448.88;5040236;28;20544;-73
2022/10/12 11:04:05;;;;;;;3.47;1.60;;;;;;;12.12;77.88;101444.50;5051156;28;20053;-73
2022/10/12 11:06:39;;;;;;;2.83;1.65;;;;;;;12.11;78.21;101442.72;5041659;28;20048;-73
2022/10/12 11:09:14;;;;;;;3.25;1.55;;;;;;;12.10;78.67;101441.84;5043109;28;20053;-73
2022/10/12 11:11:44;;;;;;;7.65;1.40;;;;;;;12.04;77.74;101431.25;5043863;28;20048;-73
2022/10/12 11:14:17;;;;;;;3.28;1.15;;;;;;;12.03;77.37;101439.03;5046425;28;20048;-73
2022/10/12 11:16:51;;;;;;;4.65;1.58;;;;;;;12.01;78.96;101431.16;5046019;28;20052;-73
2022/10/12 11:19:30;;;;;;;5.55;1.50;;;;;;;11.99;78.47;101431.94;5047853;28;20048;-73
2022/10/12 11:22:04;;;;;;;5.95;1.65;;;;;;;11.97;78.16;101428.41;5047896;28;20092;-73
2022/10/12 11:24:41;;;;;;;7.88;1.45;;;;;;;11.92;77.74;101439.50;5050489;28;20122;-73
2022/10/12 11:27:15;;;;;;;4.38;1.25;;;;;;;11.89;77.95;101446.31;5041074;28;20045;-74
2022/10/12 11:29:44;;;;;;;4.68;1.25;;;;;;;11.87;79.07;101448.84;5051633;28;20063;-73
2022/10/12 11:32:29;;;;;;;3.95;1.10;;;;;;;11.85;78.81;101450.47;5044380;28;20056;-73
2022/10/12 11:35:02;;;;;;;11.30;1.65;;;;;;;11.78;79.15;101455.38;5045902;28;20572;-73
2022/10/12 11:37:38;;;;;;;5.07;1.55;;;;;;;11.74;78.74;101457.84;5047205;28;20053;-73
2022/10/12 11:40:18;;;;;;;5.78;1.38;;;;;;;11.74;78.96;101456.97;5047781;28;20103;-73
2022/10/12 11:42:56;;;;;;;4.63;1.25;;;;;;;11.75;79.47;101458.75;5048245;28;20056;-73
2022/10/12 11:45:30;;;;;;;5.97;1.27;;;;;;;11.74;79.69;101463.03;5038273;28;20064;-73